createdAt,value
2023-06-09T00:01:47.980Z,25.37
2023-06-09T00:04:14.832Z,25.34
2023-06-09T00:06:41.425Z,25.33
2023-06-09T00:09:08.364Z,25.31
2023-06-09T00:11:34.964Z,25.29
2023-06-09T00:14:01.664Z,25.28
2023-06-09T00:16:29.810Z,25.25
2023-06-09T00:18:58.852Z,25.26
2023-06-09T00:21:26.680Z,25.24
2023-06-09T00:23:57.278Z,25.23
2023-06-09T00:26:24.029Z,25.22
2023-06-09T00:28:50.907Z,25.21
2023-06-09T00:31:17.484Z,25.21
2023-06-09T00:33:44.084Z,25.20
2023-06-09T00:36:10.620Z,25.20
2023-06-09T00:38:37.372Z,25.19
2023-06-09T00:41:04.000Z,25.19
2023-06-09T00:43:30.690Z,25.19
2023-06-09T00:45:57.536Z,25.18
2023-06-09T00:48:24.102Z,25.18
2023-06-09T00:50:50.678Z,25.17
2023-06-09T00:53:17.932Z,25.18
2023-06-09T00:55:44.724Z,25.16
2023-06-09T00:58:11.614Z,25.15
2023-06-09T01:00:40.313Z,25.15
2023-06-09T01:03:07.366Z,25.14
2023-06-09T01:05:35.366Z,25.13
2023-06-09T01:08:17.026Z,25.13
2023-06-09T01:10:47.235Z,25.11
2023-06-09T01:13:27.993Z,25.11
2023-06-09T01:16:01.014Z,25.07
2023-06-09T01:18:29.067Z,25.05
2023-06-09T01:21:04.077Z,25.04
2023-06-09T01:23:39.065Z,25.02
2023-06-09T01:26:05.745Z,25.00
2023-06-09T01:28:33.125Z,24.98
2023-06-09T01:30:59.940Z,24.96
2023-06-09T01:33:26.971Z,24.93
2023-06-09T01:35:54.356Z,24.92
2023-06-09T01:38:21.689Z,24.90
2023-06-09T01:40:48.371Z,24.88
2023-06-09T01:43:15.085Z,24.88
2023-06-09T01:45:41.728Z,24.86
2023-06-09T01:48:20.643Z,24.86
2023-06-09T01:51:01.090Z,24.85
2023-06-09T01:53:29.968Z,24.84
2023-06-09T01:55:59.858Z,24.84
2023-06-09T01:58:41.642Z,24.84
2023-06-09T02:01:08.901Z,24.82
2023-06-09T02:03:38.879Z,24.82
2023-06-09T02:06:06.319Z,24.81
2023-06-09T02:08:33.461Z,24.81
2023-06-09T02:11:00.140Z,24.81
2023-06-09T02:13:26.717Z,24.80
2023-06-09T02:15:53.257Z,24.79
2023-06-09T02:18:22.873Z,24.79
2023-06-09T02:20:49.872Z,24.77
2023-06-09T02:23:16.936Z,24.76
2023-06-09T02:25:43.578Z,24.77
2023-06-09T02:28:10.301Z,24.76
2023-06-09T02:30:36.997Z,24.76
2023-06-09T02:33:03.823Z,24.76
2023-06-09T02:35:31.138Z,24.74
2023-06-09T02:37:59.110Z,24.74
2023-06-09T02:40:29.092Z,24.73
2023-06-09T02:42:55.704Z,24.72
2023-06-09T02:45:22.298Z,24.72
2023-06-09T02:47:49.118Z,24.70
2023-06-09T02:50:15.821Z,24.69
2023-06-09T02:52:43.412Z,24.68
2023-06-09T02:55:10.088Z,24.65
2023-06-09T02:57:36.700Z,24.64
2023-06-09T03:00:05.565Z,24.62
2023-06-09T03:02:34.011Z,24.61
2023-06-09T03:05:00.638Z,24.61
2023-06-09T03:07:27.241Z,24.59
2023-06-09T03:09:53.794Z,24.60
2023-06-09T03:12:20.517Z,24.58
2023-06-09T03:14:47.246Z,24.57
2023-06-09T03:17:14.532Z,24.58
2023-06-09T03:19:41.454Z,24.56
2023-06-09T03:22:08.073Z,24.56
2023-06-09T03:24:35.140Z,24.54
2023-06-09T03:27:01.885Z,24.53
2023-06-09T03:29:30.209Z,24.53
2023-06-09T03:31:56.773Z,24.52
2023-06-09T03:34:24.154Z,24.49
2023-06-09T03:36:50.693Z,24.49
2023-06-09T03:39:18.230Z,24.49
2023-06-09T03:41:44.822Z,24.48
2023-06-09T03:44:11.392Z,24.48
2023-06-09T03:46:38.062Z,24.47
2023-06-09T03:49:04.595Z,24.46
2023-06-09T03:51:31.090Z,24.46
2023-06-09T03:53:57.694Z,24.45
2023-06-09T03:56:24.247Z,24.45
2023-06-09T03:58:50.786Z,24.45
2023-06-09T04:01:19.040Z,24.44
2023-06-09T04:06:12.243Z,24.42
2023-06-09T04:08:38.760Z,24.40
2023-06-09T04:11:05.284Z,24.41
2023-06-09T04:13:31.834Z,24.40
2023-06-09T04:15:58.491Z,24.39
2023-06-09T04:18:25.002Z,24.39
2023-06-09T04:20:51.928Z,24.40
2023-06-09T04:23:18.478Z,24.40
2023-06-09T04:25:45.060Z,24.41
2023-06-09T04:28:11.700Z,24.41
2023-06-09T04:30:39.288Z,24.40
2023-06-09T04:33:06.334Z,24.42
2023-06-09T04:35:32.944Z,24.42
2023-06-09T04:38:03.838Z,24.43
2023-06-09T04:40:31.217Z,24.43
2023-06-09T04:42:58.773Z,24.43
2023-06-09T04:45:34.951Z,24.44
2023-06-09T04:48:04.451Z,24.44
2023-06-09T04:50:33.933Z,24.45
2023-06-09T04:53:05.298Z,24.45
2023-06-09T04:55:32.189Z,24.46
2023-06-09T04:57:58.739Z,24.47
2023-06-09T05:00:27.952Z,24.48
2023-06-09T05:02:58.622Z,24.49
2023-06-09T05:05:25.840Z,24.49
2023-06-09T05:07:52.617Z,24.49
2023-06-09T05:10:19.165Z,24.49
2023-06-09T05:12:45.733Z,24.49
2023-06-09T05:15:12.463Z,24.48
2023-06-09T05:17:39.223Z,24.49
2023-06-09T05:20:09.466Z,24.48
2023-06-09T05:22:37.012Z,24.50
2023-06-09T05:25:07.232Z,24.50
2023-06-09T05:27:33.793Z,24.52
2023-06-09T05:30:00.480Z,24.54
2023-06-09T05:32:27.066Z,24.57
2023-06-09T05:34:54.267Z,24.59
2023-06-09T05:37:20.862Z,24.63
2023-06-09T05:39:47.396Z,24.67
2023-06-09T05:42:14.399Z,24.69
2023-06-09T05:44:40.920Z,24.73
2023-06-09T05:47:07.908Z,24.76
2023-06-09T05:49:35.758Z,24.78
2023-06-09T05:52:03.056Z,24.81
2023-06-09T05:54:29.550Z,24.84
2023-06-09T05:56:56.427Z,24.85
2023-06-09T05:59:24.353Z,24.87
2023-06-09T06:01:51.536Z,24.90
2023-06-09T06:04:18.408Z,24.91
2023-06-09T06:06:45.146Z,24.92
2023-06-09T06:09:11.887Z,24.92
2023-06-09T06:11:38.535Z,24.92
2023-06-09T06:14:05.033Z,24.92
2023-06-09T06:16:31.615Z,24.93
2023-06-09T06:18:58.290Z,24.94
2023-06-09T06:21:24.822Z,24.96
2023-06-09T06:23:51.333Z,24.97
2023-06-09T06:26:17.907Z,24.99
2023-06-09T06:28:44.590Z,25.00
2023-06-09T06:31:11.210Z,25.01
2023-06-09T06:33:38.140Z,25.02
2023-06-09T06:36:04.788Z,25.02
2023-06-09T06:38:31.377Z,25.05
2023-06-09T06:40:57.893Z,25.06
2023-06-09T06:43:24.394Z,25.08
2023-06-09T06:45:50.923Z,25.11
2023-06-09T06:48:17.449Z,25.14
2023-06-09T06:50:44.271Z,25.16
2023-06-09T06:53:10.912Z,25.18
2023-06-09T06:55:38.399Z,25.20
2023-06-09T06:58:05.151Z,25.24
2023-06-09T07:00:31.800Z,25.26
2023-06-09T07:02:58.439Z,25.30
2023-06-09T07:05:25.051Z,25.32
2023-06-09T07:07:51.565Z,25.35
2023-06-09T07:10:18.149Z,25.40
2023-06-09T07:12:44.740Z,25.42
2023-06-09T07:15:11.630Z,25.49
2023-06-09T07:17:38.364Z,25.55
2023-06-09T07:20:05.726Z,25.62
2023-06-09T07:22:35.411Z,25.70
2023-06-09T07:25:02.258Z,25.76
2023-06-09T07:27:28.809Z,25.83
2023-06-09T07:29:55.324Z,25.91
2023-06-09T07:32:22.159Z,25.99
2023-06-09T07:34:48.827Z,26.07
2023-06-09T07:37:15.620Z,26.14
2023-06-09T07:39:42.337Z,26.19
2023-06-09T07:42:08.900Z,26.26
2023-06-09T07:44:35.398Z,26.31
2023-06-09T07:47:02.949Z,26.36
2023-06-09T07:49:29.494Z,26.44
2023-06-09T07:51:57.074Z,26.49
2023-06-09T07:54:24.351Z,26.58
2023-06-09T07:56:51.602Z,26.66
2023-06-09T07:59:18.515Z,26.73
2023-06-09T08:01:45.194Z,26.81
2023-06-09T08:04:12.069Z,26.92
2023-06-09T08:06:39.076Z,27.00
2023-06-09T08:09:06.092Z,27.12
2023-06-09T08:11:32.786Z,27.22
2023-06-09T08:13:59.460Z,27.30
2023-06-09T08:16:26.077Z,27.40
2023-06-09T08:18:52.739Z,27.47
2023-06-09T08:21:19.347Z,27.56
2023-06-09T08:23:46.392Z,27.63
2023-06-09T08:26:13.189Z,27.69
2023-06-09T08:28:39.898Z,27.75
2023-06-09T08:31:07.228Z,27.80
2023-06-09T08:33:34.673Z,27.87
2023-06-09T08:36:04.167Z,27.92
2023-06-09T08:38:34.802Z,27.99
2023-06-09T08:41:09.043Z,28.06
2023-06-09T08:43:36.022Z,28.12
2023-06-09T08:46:04.720Z,28.21
2023-06-09T08:48:32.124Z,28.27
2023-06-09T08:50:59.148Z,28.34
2023-06-09T08:53:26.352Z,28.42
2023-06-09T08:55:59.711Z,28.49
2023-06-09T08:58:27.305Z,28.58
2023-06-09T09:00:53.949Z,28.66
2023-06-09T09:03:21.735Z,28.74
2023-06-09T09:05:48.317Z,28.81
2023-06-09T09:08:17.905Z,28.89
2023-06-09T09:10:46.824Z,28.96
2023-06-09T09:13:13.720Z,29.03
2023-06-09T09:15:51.117Z,29.13
2023-06-09T09:18:18.512Z,29.18
2023-06-09T09:20:45.632Z,29.26
2023-06-09T09:23:12.395Z,29.33
2023-06-09T09:25:39.406Z,29.41
2023-06-09T09:28:09.773Z,29.50
2023-06-09T09:30:50.168Z,29.59
2023-06-09T09:33:19.831Z,29.70
2023-06-09T09:35:47.905Z,29.81
2023-06-09T09:38:15.824Z,29.93
2023-06-09T09:40:44.031Z,30.05
2023-06-09T09:43:11.570Z,30.14
2023-06-09T09:45:40.428Z,30.26
2023-06-09T09:48:11.249Z,30.36
2023-06-09T09:50:38.255Z,30.48
2023-06-09T09:53:05.509Z,30.59
2023-06-09T09:55:32.882Z,30.74
2023-06-09T09:58:01.267Z,30.88
2023-06-09T10:00:28.930Z,31.02
2023-06-09T10:03:00.547Z,31.16
2023-06-09T10:05:30.314Z,31.29
2023-06-09T10:07:57.180Z,31.42
2023-06-09T10:10:24.121Z,31.54
2023-06-09T10:12:52.500Z,31.66
2023-06-09T10:15:20.464Z,31.77
2023-06-09T10:17:47.814Z,31.86
2023-06-09T10:20:14.483Z,31.97
2023-06-09T10:22:41.658Z,32.06
2023-06-09T10:25:09.615Z,32.15
2023-06-09T10:27:36.731Z,32.24
2023-06-09T10:30:04.728Z,32.33
2023-06-09T10:32:33.126Z,32.44
2023-06-09T10:35:00.460Z,32.53
2023-06-09T10:37:30.984Z,32.61
2023-06-09T10:40:02.386Z,32.66
2023-06-09T10:42:39.853Z,32.69
2023-06-09T10:45:09.433Z,32.73
2023-06-09T10:47:42.918Z,32.80
2023-06-09T10:50:22.241Z,32.88
2023-06-09T10:52:58.800Z,32.96
2023-06-09T10:55:28.536Z,33.06
2023-06-09T10:57:56.266Z,33.16
2023-06-09T11:00:23.345Z,33.27
2023-06-09T11:03:09.848Z,33.37
2023-06-09T11:05:43.178Z,33.45
2023-06-09T11:08:09.733Z,33.53
2023-06-09T11:10:39.553Z,33.60
2023-06-09T11:13:44.760Z,33.70
2023-06-09T11:16:11.440Z,33.79
2023-06-09T11:18:40.110Z,33.89
2023-06-09T11:21:14.504Z,34.02
2023-06-09T11:24:02.148Z,34.16
2023-06-09T11:26:29.414Z,34.35
2023-06-09T11:28:55.996Z,34.51
2023-06-09T11:31:22.693Z,34.66
2023-06-09T11:33:50.429Z,34.80
2023-06-09T11:36:28.542Z,34.92
2023-06-09T11:38:59.716Z,35.07
2023-06-09T11:41:26.924Z,35.20
2023-06-09T11:43:54.478Z,35.32
2023-06-09T11:46:21.418Z,35.44
2023-06-09T11:48:57.463Z,35.52
2023-06-09T11:51:24.066Z,35.56
2023-06-09T11:53:51.295Z,35.58
2023-06-09T11:56:17.891Z,35.55
2023-06-09T11:58:44.426Z,35.53
2023-06-09T12:01:11.226Z,35.48
2023-06-09T12:03:39.456Z,35.43
2023-06-09T12:06:06.254Z,35.36
2023-06-09T12:08:33.724Z,35.30
2023-06-09T12:11:03.273Z,35.23
2023-06-09T12:13:30.223Z,35.16
2023-06-09T12:15:56.870Z,35.11
2023-06-09T12:18:23.471Z,35.07
2023-06-09T12:20:51.641Z,35.05
2023-06-09T12:23:18.800Z,35.04
2023-06-09T12:25:48.185Z,35.06
2023-06-09T12:28:16.605Z,35.10
2023-06-09T12:30:46.553Z,35.10
2023-06-09T12:33:14.648Z,35.12
2023-06-09T12:35:42.037Z,35.15
2023-06-09T12:38:12.129Z,35.16
2023-06-09T12:40:45.643Z,35.20
2023-06-09T12:43:12.552Z,35.26
2023-06-09T12:45:41.417Z,35.31
2023-06-09T12:48:08.345Z,35.36
2023-06-09T12:50:35.695Z,35.40
2023-06-09T12:53:02.532Z,35.43
2023-06-09T12:55:29.212Z,35.39
2023-06-09T12:57:55.816Z,35.36
2023-06-09T13:00:23.449Z,35.32
2023-06-09T13:02:51.064Z,35.26
2023-06-09T13:05:18.097Z,35.21
2023-06-09T13:07:45.043Z,35.14
2023-06-09T13:10:11.843Z,35.07
2023-06-09T13:12:38.539Z,35.03
2023-06-09T13:15:05.298Z,35.01
2023-06-09T13:17:31.896Z,34.98
2023-06-09T13:19:58.485Z,34.96
2023-06-09T13:22:25.079Z,34.93
2023-06-09T13:24:51.671Z,34.90
2023-06-09T13:27:18.241Z,34.90
2023-06-09T13:29:44.780Z,34.87
2023-06-09T13:32:11.316Z,34.84
2023-06-09T13:34:38.937Z,34.79
2023-06-09T13:37:05.772Z,34.71
2023-06-09T13:39:32.336Z,34.58
2023-06-09T13:41:58.918Z,34.45
2023-06-09T13:44:25.640Z,34.35
2023-06-09T13:46:52.208Z,34.23
2023-06-09T13:49:18.940Z,34.13
2023-06-09T13:51:45.618Z,34.07
2023-06-09T13:54:12.183Z,34.03
2023-06-09T13:56:38.990Z,34.02
2023-06-09T13:59:07.442Z,34.02
2023-06-09T14:01:35.219Z,34.01
2023-06-09T14:04:02.014Z,34.02
2023-06-09T14:06:28.795Z,34.03
2023-06-09T14:08:55.416Z,34.04
2023-06-09T14:11:23.049Z,34.07
2023-06-09T14:13:49.907Z,34.10
2023-06-09T14:16:16.527Z,34.13
2023-06-09T14:18:43.158Z,34.17
2023-06-09T14:21:09.704Z,34.21
2023-06-09T14:23:37.222Z,34.24
2023-06-09T14:26:03.917Z,34.28
2023-06-09T14:28:30.512Z,34.33
2023-06-09T14:30:57.188Z,34.40
2023-06-09T14:33:23.805Z,34.48
2023-06-09T14:35:50.378Z,34.57
2023-06-09T14:38:16.929Z,34.66
2023-06-09T14:40:43.483Z,34.74
2023-06-09T14:43:11.155Z,34.82
2023-06-09T14:45:38.029Z,34.91
2023-06-09T14:48:07.854Z,34.99
2023-06-09T14:50:39.144Z,35.06
2023-06-09T14:53:06.266Z,35.10
2023-06-09T14:55:36.733Z,35.13
2023-06-09T14:58:03.746Z,35.18
2023-06-09T15:00:31.573Z,35.21
2023-06-09T15:02:59.587Z,35.26
2023-06-09T15:05:27.305Z,35.26
2023-06-09T15:07:56.088Z,35.27
2023-06-09T15:10:23.563Z,35.28
2023-06-09T15:12:50.798Z,35.30
2023-06-09T15:15:20.149Z,35.31
2023-06-09T15:17:46.974Z,35.32
2023-06-09T15:20:15.656Z,35.33
2023-06-09T15:22:42.331Z,35.33
2023-06-09T15:25:10.033Z,35.34
2023-06-09T15:27:39.562Z,35.32
2023-06-09T15:30:07.108Z,35.32
2023-06-09T15:32:33.790Z,35.30
2023-06-09T15:35:00.389Z,35.27
2023-06-09T15:37:27.063Z,35.26
2023-06-09T15:39:53.578Z,35.26
2023-06-09T15:42:20.180Z,35.25
2023-06-09T15:44:46.808Z,35.25
2023-06-09T15:47:13.925Z,35.26
2023-06-09T15:49:40.741Z,35.26
2023-06-09T15:52:07.535Z,35.26
2023-06-09T15:54:34.148Z,35.26
2023-06-09T15:57:03.465Z,35.27
2023-06-09T15:59:30.620Z,35.27
2023-06-09T16:01:57.652Z,35.27
2023-06-09T16:04:24.525Z,35.26
2023-06-09T16:06:51.842Z,35.26
2023-06-09T16:09:18.722Z,35.26
2023-06-09T16:11:45.297Z,35.25
2023-06-09T16:14:11.861Z,35.25
2023-06-09T16:16:38.453Z,35.24
2023-06-09T16:19:05.022Z,35.21
2023-06-09T16:21:32.258Z,35.19
2023-06-09T16:23:58.911Z,35.17
2023-06-09T16:26:28.476Z,35.13
2023-06-09T16:28:55.286Z,35.11
2023-06-09T16:31:22.077Z,35.08
2023-06-09T16:33:48.878Z,35.07
2023-06-09T16:36:15.604Z,35.04
2023-06-09T16:38:43.688Z,35.01
2023-06-09T16:41:10.685Z,34.99
2023-06-09T16:43:40.061Z,34.96
2023-06-09T16:46:06.999Z,34.94
2023-06-09T16:48:36.761Z,34.90
2023-06-09T16:51:04.185Z,34.88
2023-06-09T16:53:31.009Z,34.84
2023-06-09T16:55:57.792Z,34.82
2023-06-09T16:58:24.614Z,34.80
2023-06-09T17:00:51.180Z,34.76
2023-06-09T17:03:17.993Z,34.72
2023-06-09T17:05:44.877Z,34.68
2023-06-09T17:08:11.596Z,34.64
2023-06-09T17:10:38.299Z,34.60
2023-06-09T17:13:06.294Z,34.56
2023-06-09T17:15:33.334Z,34.52
2023-06-09T17:18:00.095Z,34.50
2023-06-09T17:20:26.798Z,34.45
2023-06-09T17:22:53.412Z,34.41
2023-06-09T17:25:20.261Z,34.39
2023-06-09T17:27:47.213Z,34.35
2023-06-09T17:30:15.191Z,34.30
2023-06-09T17:32:42.651Z,34.26
2023-06-09T17:35:09.663Z,34.22
2023-06-09T17:37:38.472Z,34.16
2023-06-09T17:40:08.696Z,34.11
2023-06-09T17:42:35.602Z,34.05
2023-06-09T17:45:02.551Z,33.99
2023-06-09T17:47:29.673Z,33.94
2023-06-09T17:49:56.260Z,33.87
2023-06-09T17:52:22.864Z,33.82
2023-06-09T17:54:49.584Z,33.75
2023-06-09T17:57:16.298Z,33.68
2023-06-09T17:59:42.866Z,33.61
2023-06-09T18:02:09.525Z,33.53
2023-06-09T18:04:36.400Z,33.46
2023-06-09T18:07:06.250Z,33.38
2023-06-09T18:09:33.093Z,33.30
2023-06-09T18:11:59.984Z,33.21
2023-06-09T18:14:26.739Z,33.14
2023-06-09T18:16:53.836Z,33.06
2023-06-09T18:19:20.376Z,32.97
2023-06-09T18:21:47.508Z,32.89
2023-06-09T18:24:14.290Z,32.81
2023-06-09T18:26:41.554Z,32.72
2023-06-09T18:29:09.693Z,32.64
2023-06-09T18:31:36.436Z,32.54
2023-06-09T18:34:03.122Z,32.45
2023-06-09T18:36:32.369Z,32.38
2023-06-09T18:38:59.592Z,32.28
2023-06-09T18:41:26.488Z,32.19
2023-06-09T18:43:55.938Z,32.11
2023-06-09T18:46:22.589Z,32.02
2023-06-09T18:49:00.370Z,31.92
2023-06-09T18:51:28.101Z,31.83
2023-06-09T18:53:55.041Z,31.75
2023-06-09T18:56:21.906Z,31.66
2023-06-09T18:58:48.562Z,31.57
2023-06-09T19:01:15.643Z,31.48
2023-06-09T19:03:42.626Z,31.39
2023-06-09T19:06:09.423Z,31.29
2023-06-09T19:08:36.010Z,31.20
2023-06-09T19:11:02.893Z,31.11
2023-06-09T19:13:29.548Z,31.02
2023-06-09T19:15:56.420Z,30.93
2023-06-09T19:18:23.088Z,30.85
2023-06-09T19:20:50.826Z,30.75
2023-06-09T19:23:17.602Z,30.65
2023-06-09T19:25:44.301Z,30.56
2023-06-09T19:28:10.924Z,30.48
2023-06-09T19:30:37.678Z,30.39
2023-06-09T19:33:04.624Z,30.32
2023-06-09T19:35:31.358Z,30.23
2023-06-09T19:38:00.165Z,30.13
2023-06-09T19:40:27.304Z,30.04
2023-06-09T19:42:53.931Z,29.92
2023-06-09T19:45:20.756Z,29.82
2023-06-09T19:47:48.081Z,29.71
2023-06-09T19:50:14.830Z,29.61
2023-06-09T19:52:41.700Z,29.51
2023-06-09T19:55:08.943Z,29.41
2023-06-09T19:57:36.129Z,29.32
2023-06-09T20:00:05.977Z,29.24
2023-06-09T20:02:33.837Z,29.15
2023-06-09T20:05:00.559Z,29.05
2023-06-09T20:07:27.238Z,28.96
2023-06-09T20:09:53.788Z,28.87
2023-06-09T20:12:20.397Z,28.78
2023-06-09T20:14:47.708Z,28.69
2023-06-09T20:17:14.414Z,28.61
2023-06-09T20:19:41.330Z,28.51
2023-06-09T20:22:09.643Z,28.42
2023-06-09T20:24:36.323Z,28.32
2023-06-09T20:27:02.924Z,28.22
2023-06-09T20:29:30.058Z,28.12
2023-06-09T20:31:56.722Z,28.04
2023-06-09T20:34:23.355Z,27.95
2023-06-09T20:36:49.984Z,27.87
2023-06-09T20:39:16.752Z,27.78
2023-06-09T20:41:43.407Z,27.71
2023-06-09T20:44:10.151Z,27.63
2023-06-09T20:46:36.995Z,27.56
2023-06-09T20:49:03.827Z,27.46
2023-06-09T20:51:30.442Z,27.38
2023-06-09T20:53:57.477Z,27.28
2023-06-09T20:56:24.220Z,27.19
2023-06-09T20:58:51.320Z,27.10
2023-06-09T21:01:18.329Z,27.02
2023-06-09T21:03:47.656Z,26.93
2023-06-09T21:06:20.728Z,26.83
2023-06-09T21:08:47.944Z,26.75
2023-06-09T21:11:14.879Z,26.67
2023-06-09T21:13:41.858Z,26.58
2023-06-09T21:16:08.570Z,26.49
2023-06-09T21:18:35.335Z,26.40
2023-06-09T21:21:02.106Z,26.34
2023-06-09T21:23:28.636Z,26.26
2023-06-09T21:25:55.293Z,26.19
2023-06-09T21:28:21.901Z,26.10
2023-06-09T21:30:48.623Z,26.05
2023-06-09T22:38:56.413Z,26.00
2023-06-09T22:41:23.249Z,25.98
2023-06-09T22:43:49.832Z,25.97
2023-06-09T22:46:16.860Z,25.95
2023-06-09T22:48:43.574Z,25.92
2023-06-09T22:51:10.321Z,25.90
2023-06-09T22:53:38.303Z,25.88
2023-06-09T22:56:05.256Z,25.86
2023-06-09T22:58:31.883Z,25.84
2023-06-09T23:00:58.476Z,25.81
2023-06-09T23:03:25.074Z,25.78
2023-06-09T23:05:56.466Z,25.75
2023-06-09T23:08:25.116Z,25.73
2023-06-09T23:10:51.817Z,25.69
2023-06-09T23:13:18.410Z,25.68
2023-06-09T23:15:45.032Z,25.65
2023-06-09T23:18:11.680Z,25.61
2023-06-09T23:20:39.552Z,25.59
2023-06-09T23:23:06.413Z,25.56
2023-06-09T23:25:34.654Z,25.54
2023-06-09T23:28:01.235Z,25.51
2023-06-09T23:30:30.368Z,25.50
2023-06-09T23:32:57.285Z,25.46
2023-06-09T23:35:25.064Z,25.44
2023-06-09T23:37:53.926Z,25.42
2023-06-09T23:40:20.687Z,25.41
2023-06-09T23:42:47.241Z,25.40
2023-06-09T23:45:14.542Z,25.39
2023-06-09T23:47:41.179Z,25.35
2023-06-09T23:50:08.178Z,25.35
2023-06-09T23:52:34.820Z,25.33
2023-06-09T23:55:05.388Z,25.31
2023-06-09T23:57:32.189Z,25.28
2023-06-09T23:59:58.672Z,25.25
